createdAt,value
2022-11-29T00:01:16.984Z,18.27
2022-11-29T00:06:14.778Z,17.13
2022-11-29T00:08:42.305Z,17.48
2022-11-29T00:11:35.075Z,17.10
2022-11-29T00:14:01.884Z,15.57
2022-11-29T00:16:28.920Z,17.25
2022-11-29T00:18:55.643Z,22.05
2022-11-29T00:21:22.162Z,23.08
2022-11-29T00:23:48.646Z,18.80
2022-11-29T00:26:15.210Z,24.33
2022-11-29T00:28:41.816Z,19.67
2022-11-29T00:31:25.428Z,24.63
2022-11-29T00:33:52.919Z,34.88
2022-11-29T00:36:19.912Z,28.48
2022-11-29T00:38:46.735Z,34.95
2022-11-29T00:41:13.280Z,24.05
2022-11-29T00:43:40.606Z,23.25
2022-11-29T00:46:08.309Z,28.80
2022-11-29T00:48:35.690Z,22.70
2022-11-29T00:51:03.913Z,19.95
2022-11-29T00:53:30.433Z,18.77
2022-11-29T00:55:57.218Z,21.63
2022-11-29T00:58:23.812Z,24.98
2022-11-29T01:00:50.380Z,17.00
2022-11-29T01:03:17.474Z,23.30
2022-11-29T01:05:44.678Z,21.60
2022-11-29T01:08:12.057Z,14.93
2022-11-29T01:10:38.717Z,17.67
2022-11-29T01:13:05.834Z,19.08
2022-11-29T01:15:32.559Z,22.02
2022-11-29T01:17:59.366Z,20.55
2022-11-29T01:20:26.016Z,21.02
2022-11-29T01:22:52.566Z,22.75
2022-11-29T01:25:19.512Z,18.83
2022-11-29T01:27:46.674Z,16.67
2022-11-29T01:30:13.366Z,16.23
2022-11-29T01:32:39.881Z,18.33
2022-11-29T01:35:07.215Z,17.63
2022-11-29T01:37:33.909Z,17.30
2022-11-29T01:40:00.459Z,18.25
2022-11-29T01:42:27.128Z,17.27
2022-11-29T01:45:05.246Z,16.10
2022-11-29T01:47:32.539Z,18.00
2022-11-29T01:49:59.885Z,18.13
2022-11-29T01:52:29.951Z,12.82
2022-11-29T01:55:00.609Z,14.27
2022-11-29T01:57:27.470Z,17.55
2022-11-29T02:00:02.396Z,16.40
2022-11-29T02:02:34.417Z,15.95
2022-11-29T02:05:02.577Z,18.10
2022-11-29T02:07:29.362Z,15.82
2022-11-29T02:09:55.931Z,18.77
2022-11-29T02:12:31.304Z,18.55
2022-11-29T02:15:07.918Z,17.35
2022-11-29T02:18:04.274Z,14.70
2022-11-29T02:21:08.104Z,13.68
2022-11-29T02:24:12.366Z,16.20
2022-11-29T02:32:35.816Z,25.05
2022-11-29T02:35:24.040Z,22.15
2022-11-29T02:38:09.404Z,14.43
2022-11-29T02:41:17.564Z,19.30
2022-11-29T02:44:03.059Z,15.68
2022-11-29T02:46:52.477Z,16.17
2022-11-29T02:49:38.220Z,17.02
2022-11-29T02:52:17.237Z,12.13
2022-11-29T02:57:40.329Z,8.85
2022-11-29T03:00:20.124Z,16.05
2022-11-29T03:03:04.138Z,15.23
2022-11-29T03:06:09.343Z,10.25
2022-11-29T03:09:03.937Z,18.33
2022-11-29T03:11:48.799Z,14.27
2022-11-29T03:14:21.069Z,10.80
2022-11-29T03:17:17.262Z,19.55
2022-11-29T03:19:46.780Z,14.65
2022-11-29T03:22:26.506Z,15.35
2022-11-29T03:25:06.337Z,18.85
2022-11-29T03:27:43.291Z,11.23
2022-11-29T03:30:13.860Z,13.77
2022-11-29T03:32:47.971Z,15.05
2022-11-29T03:36:15.934Z,16.45
2022-11-29T03:38:47.132Z,17.10
2022-11-29T03:41:19.229Z,10.13
2022-11-29T03:44:04.155Z,11.48
2022-11-29T03:46:38.189Z,11.25
2022-11-29T03:49:16.492Z,13.90
2022-11-29T03:52:20.816Z,14.90
2022-11-29T03:55:05.989Z,10.48
2022-11-29T03:57:57.420Z,11.00
2022-11-29T04:00:24.682Z,11.75
2022-11-29T04:03:24.843Z,15.73
2022-11-29T04:06:33.628Z,12.10
2022-11-29T04:09:30.105Z,10.68
2022-11-29T04:12:15.129Z,12.18
2022-11-29T04:15:06.438Z,15.25
2022-11-29T04:18:08.478Z,10.27
2022-11-29T04:21:00.625Z,10.77
2022-11-29T04:23:51.713Z,14.55
2022-11-29T04:26:30.866Z,16.73
2022-11-29T04:29:00.242Z,11.70
2022-11-29T04:31:32.619Z,15.77
2022-11-29T04:33:59.155Z,14.20
2022-11-29T04:36:38.809Z,14.82
2022-11-29T04:39:29.077Z,14.05
2022-11-29T04:42:20.478Z,12.07
2022-11-29T04:45:31.341Z,19.05
2022-11-29T04:48:07.093Z,9.52
2022-11-29T04:50:51.826Z,15.80
2022-11-29T04:53:33.629Z,12.38
2022-11-29T04:56:10.617Z,14.43
2022-11-29T04:59:02.105Z,14.00
2022-11-29T05:01:38.732Z,12.93
2022-11-29T05:04:20.093Z,12.77
2022-11-29T05:07:11.763Z,16.38
2022-11-29T05:10:14.253Z,15.65
2022-11-29T05:13:16.333Z,11.27
2022-11-29T05:15:45.956Z,13.27
2022-11-29T05:18:18.472Z,11.95
2022-11-29T05:21:11.118Z,14.80
2022-11-29T05:24:05.869Z,12.95
2022-11-29T05:27:08.225Z,10.98
2022-11-29T05:29:55.551Z,11.88
2022-11-29T05:32:57.301Z,12.80
2022-11-29T05:35:45.223Z,12.30
2022-11-29T05:38:38.060Z,11.88
2022-11-29T05:41:21.098Z,13.57
2022-11-29T05:44:09.441Z,13.82
2022-11-29T05:46:56.814Z,13.10
2022-11-29T05:49:32.224Z,16.67
2022-11-29T05:52:20.545Z,14.82
2022-11-29T05:54:53.162Z,11.93
2022-11-29T05:57:47.550Z,15.45
2022-11-29T06:00:16.848Z,14.75
2022-11-29T06:02:56.156Z,14.77
2022-11-29T06:05:47.590Z,13.27
2022-11-29T06:08:44.651Z,12.73
2022-11-29T06:11:22.046Z,15.20
2022-11-29T06:14:07.780Z,17.83
2022-11-29T06:16:53.127Z,15.18
2022-11-29T06:19:44.549Z,17.02
2022-11-29T06:22:35.710Z,11.93
2022-11-29T06:25:39.291Z,13.52
2022-11-29T06:28:30.687Z,14.30
2022-11-29T06:31:18.737Z,12.57
2022-11-29T06:33:51.084Z,13.43
2022-11-29T06:36:20.083Z,12.07
2022-11-29T06:38:47.174Z,11.43
2022-11-29T06:41:18.744Z,12.90
2022-11-29T06:43:46.291Z,12.63
2022-11-29T06:46:29.299Z,17.85
2022-11-29T06:49:31.183Z,13.98
2022-11-29T06:52:15.380Z,15.43
2022-11-29T06:55:01.208Z,11.38
2022-11-29T06:57:46.142Z,11.93
2022-11-29T07:00:38.783Z,13.10
2022-11-29T07:03:26.990Z,12.65
2022-11-29T07:05:53.866Z,14.90
2022-11-29T07:08:23.265Z,12.32
2022-11-29T07:10:54.062Z,10.75
2022-11-29T07:13:21.668Z,9.88
2022-11-29T07:16:14.226Z,11.00
2022-11-29T07:18:47.524Z,16.80
2022-11-29T07:21:30.800Z,11.48
2022-11-29T07:24:07.514Z,12.57
2022-11-29T07:26:59.448Z,14.05
2022-11-29T07:29:32.610Z,11.50
2022-11-29T07:32:08.497Z,14.48
2022-11-29T07:34:50.063Z,13.00
2022-11-29T07:37:36.590Z,16.88
2022-11-29T07:40:14.035Z,11.85
2022-11-29T07:43:08.601Z,12.85
2022-11-29T07:45:39.135Z,11.45
2022-11-29T07:48:07.041Z,10.88
2022-11-29T07:50:35.658Z,11.27
2022-11-29T07:53:02.550Z,14.18
2022-11-29T07:55:29.845Z,14.38
2022-11-29T07:57:56.548Z,13.52
2022-11-29T08:00:23.632Z,23.42
2022-11-29T08:02:51.281Z,11.68
2022-11-29T08:05:18.622Z,10.77
2022-11-29T08:07:46.536Z,7.63
2022-11-29T08:10:15.667Z,9.77
2022-11-29T08:15:14.296Z,12.27
2022-11-29T08:17:41.056Z,19.05
2022-11-29T08:20:09.329Z,13.65
2022-11-29T08:22:36.120Z,8.40
2022-11-29T08:25:03.476Z,12.60
2022-11-29T08:27:30.497Z,9.70
2022-11-29T08:29:57.141Z,11.13
2022-11-29T08:32:23.763Z,13.07
2022-11-29T08:34:50.575Z,13.98
2022-11-29T08:37:17.330Z,18.27
2022-11-29T08:39:44.393Z,20.13
2022-11-29T08:42:11.043Z,10.95
2022-11-29T08:44:37.605Z,10.88
2022-11-29T08:47:22.896Z,9.77
2022-11-29T08:50:01.626Z,14.10
2022-11-29T08:52:48.371Z,14.88
2022-11-29T08:55:15.971Z,13.15
2022-11-29T08:57:42.670Z,9.02
2022-11-29T09:00:10.511Z,8.65
2022-11-29T09:02:37.539Z,16.15
2022-11-29T09:05:06.358Z,12.18
2022-11-29T09:07:33.430Z,12.15
2022-11-29T09:10:04.993Z,10.57
2022-11-29T09:12:32.795Z,10.93
2022-11-29T09:14:59.742Z,7.93
2022-11-29T09:17:26.747Z,10.43
2022-11-29T09:19:53.404Z,9.38
2022-11-29T09:22:20.123Z,10.85
2022-11-29T09:24:47.445Z,15.40
2022-11-29T09:27:14.375Z,16.13
2022-11-29T09:29:41.005Z,9.93
2022-11-29T09:32:07.797Z,9.18
2022-11-29T09:34:34.681Z,15.85
2022-11-29T09:37:01.824Z,9.82
2022-11-29T09:39:28.688Z,19.15
2022-11-29T09:42:01.143Z,11.23
2022-11-29T09:44:30.711Z,13.43
2022-11-29T09:47:16.153Z,10.98
2022-11-29T09:50:17.039Z,9.80
2022-11-29T09:52:55.460Z,11.50
2022-11-29T09:56:09.976Z,16.75
2022-11-29T09:58:57.336Z,8.82
2022-11-29T10:01:28.789Z,9.90
2022-11-29T10:04:00.954Z,11.05
2022-11-29T10:06:38.912Z,13.95
2022-11-29T10:09:24.175Z,9.38
2022-11-29T10:11:56.686Z,10.05
2022-11-29T10:14:30.517Z,11.52
2022-11-29T10:17:15.986Z,9.02
2022-11-29T10:19:56.123Z,10.57
2022-11-29T10:22:44.001Z,9.45
2022-11-29T10:25:20.820Z,10.10
2022-11-29T10:27:47.473Z,10.10
2022-11-29T10:30:17.324Z,18.80
2022-11-29T10:32:54.944Z,8.65
2022-11-29T10:35:22.474Z,10.98
2022-11-29T10:38:28.630Z,9.68
2022-11-29T10:40:44.219Z,10.95
2022-11-29T10:43:10.878Z,10.80
2022-11-29T10:45:44.353Z,9.23
2022-11-29T10:48:16.968Z,14.02
2022-11-29T10:50:45.653Z,8.52
2022-11-29T10:53:48.450Z,11.20
2022-11-29T10:56:17.814Z,12.93
2022-11-29T10:59:09.598Z,12.63
2022-11-29T11:01:46.781Z,13.00
2022-11-29T11:04:44.545Z,11.05
2022-11-29T11:07:28.235Z,9.43
2022-11-29T11:09:57.086Z,11.10
2022-11-29T11:12:29.819Z,15.20
2022-11-29T11:15:26.528Z,12.57
2022-11-29T11:18:01.448Z,10.23
2022-11-29T11:20:30.722Z,11.02
2022-11-29T11:23:07.438Z,14.32
2022-11-29T11:25:39.914Z,10.23
2022-11-29T11:28:25.504Z,10.35
2022-11-29T11:31:05.727Z,12.07
2022-11-29T11:33:43.705Z,11.60
2022-11-29T11:36:28.523Z,7.05
2022-11-29T11:39:27.679Z,10.90
2022-11-29T11:42:13.053Z,8.05
2022-11-29T11:44:50.481Z,13.38
2022-11-29T11:47:27.178Z,11.18
2022-11-29T11:50:04.905Z,6.45
2022-11-29T11:52:50.354Z,6.30
2022-11-29T11:55:27.037Z,10.85
2022-11-29T11:58:16.360Z,5.13
2022-11-29T12:01:04.803Z,7.43
2022-11-29T12:03:34.067Z,7.88
2022-11-29T12:06:38.766Z,7.07
2022-11-29T12:09:38.986Z,15.27
2022-11-29T12:12:35.759Z,9.38
2022-11-29T12:15:22.556Z,13.85
2022-11-29T12:18:06.361Z,12.38
2022-11-29T12:20:39.923Z,9.13
2022-11-29T12:23:24.200Z,16.38
2022-11-29T12:25:58.220Z,12.20
2022-11-29T12:28:33.935Z,15.73
2022-11-29T12:31:25.039Z,12.32
2022-11-29T12:33:51.619Z,9.75
2022-11-29T12:36:50.356Z,9.57
2022-11-29T12:39:35.293Z,10.93
2022-11-29T12:42:20.279Z,9.05
2022-11-29T12:44:53.036Z,9.10
2022-11-29T12:47:37.692Z,16.42
2022-11-29T12:50:07.486Z,8.45
2022-11-29T12:52:46.193Z,6.72
2022-11-29T12:55:38.821Z,10.85
2022-11-29T12:58:22.798Z,12.00
2022-11-29T13:01:19.844Z,8.23
2022-11-29T13:04:08.272Z,9.43
2022-11-29T13:06:48.585Z,9.57
2022-11-29T13:09:24.155Z,6.05
2022-11-29T13:12:26.257Z,13.52
2022-11-29T13:15:09.429Z,8.57
2022-11-29T13:18:11.550Z,8.52
2022-11-29T13:20:59.428Z,19.73
2022-11-29T13:23:46.122Z,10.30
2022-11-29T13:26:19.417Z,11.20
2022-11-29T13:28:48.807Z,5.78
2022-11-29T13:31:21.566Z,11.70
2022-11-29T13:34:06.428Z,10.52
2022-11-29T13:42:16.322Z,9.65
2022-11-29T13:44:50.680Z,11.65
2022-11-29T13:47:19.460Z,11.95
2022-11-29T13:49:49.074Z,14.02
2022-11-29T13:52:40.450Z,11.68
2022-11-29T13:55:21.874Z,8.50
2022-11-29T13:58:15.464Z,7.68
2022-11-29T14:00:44.023Z,9.50
2022-11-29T14:03:19.775Z,7.93
2022-11-29T14:05:52.401Z,6.82
2022-11-29T14:08:26.816Z,9.88
2022-11-29T14:10:56.620Z,8.90
2022-11-29T14:13:46.306Z,8.55
2022-11-29T14:16:27.920Z,11.10
2022-11-29T14:19:21.974Z,5.93
2022-11-29T14:22:07.001Z,6.20
2022-11-29T14:24:36.483Z,9.63
2022-11-29T14:27:05.989Z,6.53
2022-11-29T14:29:47.710Z,6.20
2022-11-29T14:32:24.595Z,9.88
2022-11-29T14:35:09.899Z,8.60
2022-11-29T14:38:14.631Z,11.77
2022-11-29T14:40:41.382Z,15.57
2022-11-29T14:43:26.115Z,12.00
2022-11-29T14:46:11.481Z,6.25
2022-11-29T14:48:38.396Z,9.98
2022-11-29T14:51:16.658Z,10.57
2022-11-29T14:53:46.264Z,12.65
2022-11-29T14:56:31.700Z,11.32
2022-11-29T14:59:35.665Z,13.38
2022-11-29T15:02:07.759Z,12.82
2022-11-29T15:04:36.672Z,12.38
2022-11-29T15:07:05.542Z,12.77
2022-11-29T15:09:34.756Z,11.40
2022-11-29T15:12:13.118Z,16.70
2022-11-29T15:14:46.246Z,11.43
2022-11-29T15:17:32.157Z,18.13
2022-11-29T15:20:23.025Z,24.98
2022-11-29T15:23:00.788Z,21.40
2022-11-29T15:25:31.719Z,17.92
2022-11-29T15:27:59.641Z,20.58
2022-11-29T15:30:32.309Z,17.55
2022-11-29T15:33:00.605Z,19.55
2022-11-29T15:35:27.709Z,15.13
2022-11-29T15:37:54.922Z,17.30
2022-11-29T15:40:26.396Z,16.40
2022-11-29T15:43:15.314Z,14.73
2022-11-29T15:48:26.334Z,19.55
2022-11-29T15:51:20.117Z,23.05
2022-11-29T15:54:12.801Z,19.10
2022-11-29T15:56:53.501Z,20.80
2022-11-29T15:59:29.131Z,25.75
2022-11-29T16:02:00.487Z,19.75
2022-11-29T16:04:27.284Z,18.50
2022-11-29T16:06:56.388Z,28.38
2022-11-29T16:12:03.515Z,15.63
2022-11-29T16:14:30.117Z,18.40
2022-11-29T16:17:00.783Z,22.75
2022-11-29T16:19:30.437Z,13.38
2022-11-29T16:21:59.679Z,14.13
2022-11-29T16:24:26.719Z,27.20
2022-11-29T16:26:54.002Z,18.17
2022-11-29T16:29:34.607Z,21.05
2022-11-29T16:32:30.476Z,21.80
2022-11-29T16:35:05.916Z,22.35
2022-11-29T16:37:42.500Z,25.80
2022-11-29T16:40:22.826Z,20.40
2022-11-29T16:43:04.732Z,21.17
2022-11-29T16:45:33.695Z,19.65
2022-11-29T16:48:01.834Z,23.10
2022-11-29T16:50:32.608Z,23.83
2022-11-29T16:53:33.848Z,20.80
2022-11-29T16:56:00.523Z,24.27
2022-11-29T16:58:28.081Z,27.40
2022-11-29T17:00:55.392Z,25.80
2022-11-29T17:03:22.607Z,20.92
2022-11-29T17:05:49.883Z,19.20
2022-11-29T17:08:16.558Z,25.08
2022-11-29T17:10:43.128Z,30.25
2022-11-29T17:13:11.056Z,24.17
2022-11-29T17:15:37.594Z,25.05
2022-11-29T17:18:04.240Z,27.13
2022-11-29T17:20:30.878Z,51.85
2022-11-29T17:22:57.539Z,44.53
2022-11-29T17:25:24.310Z,46.47
2022-11-29T17:27:50.907Z,31.50
2022-11-29T17:30:17.740Z,23.58
2022-11-29T17:32:44.286Z,32.05
2022-11-29T17:35:10.931Z,27.45
2022-11-29T17:37:37.484Z,26.73
2022-11-29T17:40:04.490Z,31.52
2022-11-29T17:42:31.023Z,31.90
2022-11-29T17:44:57.570Z,26.45
2022-11-29T17:47:24.215Z,25.00
2022-11-29T17:49:50.842Z,29.70
2022-11-29T17:52:17.489Z,24.17
2022-11-29T17:54:44.194Z,26.67
2022-11-29T17:57:10.779Z,29.95
2022-11-29T17:59:37.346Z,23.10
2022-11-29T18:02:04.345Z,26.48
2022-11-29T18:04:30.953Z,24.15
2022-11-29T18:06:57.540Z,27.23
2022-11-29T18:09:24.185Z,32.08
2022-11-29T18:11:50.955Z,28.45
2022-11-29T18:14:28.484Z,34.63
2022-11-29T18:16:55.261Z,32.03
2022-11-29T18:19:23.396Z,27.58
2022-11-29T18:21:52.841Z,30.20
2022-11-29T18:24:19.723Z,27.80
2022-11-29T18:26:47.232Z,22.80
2022-11-29T18:29:14.162Z,20.23
2022-11-29T18:31:43.133Z,20.83
2022-11-29T18:34:11.337Z,19.70
2022-11-29T18:36:43.445Z,28.03
2022-11-29T18:39:14.098Z,28.15
2022-11-29T18:41:45.208Z,23.00
2022-11-29T18:44:13.789Z,25.75
2022-11-29T18:46:43.159Z,21.50
2022-11-29T18:49:12.308Z,17.80
2022-11-29T18:54:06.527Z,19.98
2022-11-29T18:56:35.110Z,19.05
2022-11-29T18:59:05.983Z,24.17
2022-11-29T19:01:34.777Z,19.70
2022-11-29T19:04:02.154Z,19.42
2022-11-29T19:06:38.613Z,25.73
2022-11-29T19:09:07.479Z,21.35
2022-11-29T19:11:34.488Z,22.83
2022-11-29T19:14:08.040Z,26.20
2022-11-29T19:16:34.910Z,28.48
2022-11-29T19:19:01.967Z,28.15
2022-11-29T19:21:40.390Z,26.20
2022-11-29T19:24:14.059Z,25.70
2022-11-29T19:26:40.852Z,22.85
2022-11-29T19:29:07.561Z,23.20
2022-11-29T19:31:34.170Z,23.83
2022-11-29T19:34:00.757Z,23.85
2022-11-29T19:36:31.635Z,20.42
2022-11-29T19:39:00.760Z,26.75
2022-11-29T19:43:57.457Z,21.73
2022-11-29T19:46:30.116Z,23.60
2022-11-29T19:48:57.926Z,20.35
2022-11-29T19:51:26.019Z,19.17
2022-11-29T19:53:59.041Z,20.75
2022-11-29T19:56:26.180Z,20.10
2022-11-29T19:58:53.175Z,21.05
2022-11-29T20:01:26.124Z,24.52
2022-11-29T20:03:55.984Z,19.00
2022-11-29T20:06:22.889Z,21.95
2022-11-29T20:08:49.702Z,23.50
2022-11-29T20:11:16.220Z,30.23
2022-11-29T20:13:45.070Z,33.75
2022-11-29T20:16:15.024Z,23.00
2022-11-29T20:18:50.126Z,37.58
2022-11-29T20:21:24.073Z,24.40
2022-11-29T20:24:00.320Z,24.85
2022-11-29T20:26:28.483Z,32.42
2022-11-29T20:28:55.122Z,37.47
2022-11-29T20:31:23.245Z,33.33
2022-11-29T20:33:52.643Z,20.37
2022-11-29T20:36:47.202Z,23.98
2022-11-29T20:39:37.592Z,15.18
2022-11-29T20:42:36.620Z,19.92
2022-11-29T20:47:46.602Z,17.65
2022-11-29T20:50:31.457Z,18.13
2022-11-29T20:53:19.187Z,23.70
2022-11-29T20:55:48.234Z,21.77
2022-11-29T20:58:15.532Z,22.15
2022-11-29T21:00:42.343Z,17.45
2022-11-29T21:03:12.357Z,18.10
2022-11-29T21:05:39.042Z,13.82
2022-11-29T21:08:06.053Z,16.77
2022-11-29T21:10:33.397Z,18.30
2022-11-29T21:13:00.239Z,18.42
2022-11-29T21:15:27.215Z,31.02
2022-11-29T21:17:54.086Z,21.60
2022-11-29T21:20:23.857Z,26.20
2022-11-29T21:22:50.347Z,18.92
2022-11-29T21:25:26.634Z,21.10
2022-11-29T21:27:54.884Z,20.10
2022-11-29T21:30:24.028Z,16.83
2022-11-29T21:35:17.573Z,17.38
2022-11-29T21:37:44.945Z,12.77
2022-11-29T21:40:12.731Z,12.77
2022-11-29T21:42:39.687Z,15.23
2022-11-29T21:45:13.300Z,15.13
2022-11-29T21:47:42.196Z,15.85
2022-11-29T21:50:09.155Z,22.45
2022-11-29T21:52:35.775Z,13.63
2022-11-29T21:55:02.408Z,16.65
2022-11-29T21:57:28.979Z,12.07
2022-11-29T21:59:55.790Z,14.77
2022-11-29T22:02:23.219Z,19.17
2022-11-29T22:04:49.904Z,12.38
2022-11-29T22:07:16.610Z,13.05
2022-11-29T22:09:43.252Z,14.13
2022-11-29T22:12:32.533Z,18.45
2022-11-29T22:14:56.389Z,15.68
2022-11-29T22:17:22.984Z,13.82
2022-11-29T22:19:49.581Z,18.73
2022-11-29T22:22:16.150Z,21.38
2022-11-29T22:24:42.726Z,18.98
2022-11-29T22:27:09.327Z,26.67
2022-11-29T22:29:35.894Z,23.73
2022-11-29T22:32:02.833Z,19.60
2022-11-29T22:34:29.448Z,19.73
2022-11-29T22:36:56.508Z,23.92
2022-11-29T22:39:24.557Z,22.65
2022-11-29T22:41:54.719Z,16.95
2022-11-29T22:44:21.772Z,12.55
2022-11-29T22:46:50.377Z,21.55
2022-11-29T22:49:17.039Z,21.85
2022-11-29T22:51:43.750Z,19.60
2022-11-29T22:54:17.956Z,18.45
2022-11-29T22:56:45.774Z,17.85
2022-11-29T22:59:13.193Z,15.73
2022-11-29T23:01:41.225Z,15.48
2022-11-29T23:04:09.277Z,18.73
2022-11-29T23:06:38.249Z,15.88
2022-11-29T23:09:12.067Z,19.63
2022-11-29T23:11:39.148Z,17.58
2022-11-29T23:14:05.738Z,15.35
2022-11-29T23:16:32.936Z,16.45
2022-11-29T23:19:00.903Z,15.93
2022-11-29T23:21:28.833Z,14.15
2022-11-29T23:23:56.744Z,19.13
2022-11-29T23:26:40.259Z,14.25
2022-11-29T23:29:12.200Z,18.25
2022-11-29T23:31:39.336Z,17.48
2022-11-29T23:34:06.008Z,17.20
2022-11-29T23:36:32.590Z,16.75
2022-11-29T23:38:59.300Z,15.10
2022-11-29T23:41:25.915Z,18.90
2022-11-29T23:43:52.523Z,16.05
2022-11-29T23:46:21.701Z,15.82
2022-11-29T23:51:15.533Z,18.95
2022-11-29T23:53:42.320Z,17.42
2022-11-29T23:56:13.182Z,17.83
2022-11-29T23:58:40.090Z,11.90
